»·PEaware :: SWA1299 MMPR-KPHX

SWA1299 :: MMPR-KPHX

FLIGHT INFORMATION

Flight Status: Arrived
Operator:
Southwest Airlines
More flights by this operator :: More flights under this callsign
Pilot: Daniel W. (24238)
Aircraft: BOEING 737-700
(B737)
More flights by this aircraft type
Origin: MMPR Lic Gustavo Diaz Ordaz Intl
Mexico
Destination: KPHX Phoenix Sky Harbor Intl
United States
More flights between these airports :: More routes between these airports
Route: BOBDI UT4 BEXOL CUL UT12 NABAS UT12 VYLLA TUS HOTTT PINNG1
File this flight plan on PilotEdge
Remarks: PBN / A1D1O1S2T1 NAV / RNVD1E1A1 RNP10 DOF / 210112 REG / N405WN EET / MMZT0007 KZAB0147 CODE / A4C135 PER / C
Altitude:
(Current/Filed)
38,000ft
Speed:
(Current/Filed)
447kts
Departed: 12-Jan-21 02:44 PM
Arrived: 12-Jan-21 05:03 PM
Distance/Time
Traveled:
845nm/2:19
Distance/Time
To Go:
Arrived

Flight Plot

Page will automatically refresh every two minutes.

Flight plan parsing failed; only flown route is shown


Map Options




Map Legend


Flown Route
Filed Route
Departure Airport
Arrival Airport
Navaid (VOR, NDB)
Fix

Horizontal Profiles

Position Reports

Time Latitude Longitude Heading Altitude Ground
Speed
12-Jan-21 13:27 20.679521 -105.246961 47 31ft 0kts
12-Jan-21 13:28 20.679521 -105.246961 47 31ft 0kts
12-Jan-21 13:29 20.679521 -105.246961 47 31ft 0kts
12-Jan-21 13:30 20.679521 -105.246961 47 31ft 0kts
12-Jan-21 13:31 20.679521 -105.246961 47 31ft 0kts
12-Jan-21 13:32 20.679521 -105.246961 47 31ft 0kts
12-Jan-21 13:33 20.679521 -105.246961 47 31ft 0kts
12-Jan-21 13:34 20.679521 -105.246961 47 31ft 0kts
12-Jan-21 13:35 20.679521 -105.246961 47 31ft 0kts
12-Jan-21 13:36 20.679521 -105.246961 47 31ft 0kts
12-Jan-21 13:37 20.679521 -105.246961 47 31ft 0kts
12-Jan-21 13:38 20.679521 -105.246961 47 31ft 0kts
12-Jan-21 13:39 20.679521 -105.246961 47 31ft 0kts
12-Jan-21 13:40 20.679521 -105.246961 47 31ft 0kts
12-Jan-21 13:41 20.679521 -105.246961 47 31ft 0kts
12-Jan-21 13:43 20.679521 -105.246961 47 31ft 0kts
12-Jan-21 13:44 20.679521 -105.246961 47 31ft 0kts
12-Jan-21 13:45 20.679521 -105.246961 47 31ft 0kts
12-Jan-21 13:46 20.679521 -105.246961 47 31ft 0kts
12-Jan-21 13:47 20.679521 -105.246961 47 31ft 0kts
12-Jan-21 13:48 20.679521 -105.246961 47 31ft 0kts
12-Jan-21 13:49 20.679521 -105.246961 47 31ft 0kts
12-Jan-21 13:50 20.679521 -105.246961 47 31ft 0kts
12-Jan-21 13:51 20.679521 -105.246961 47 31ft 0kts
12-Jan-21 13:52 20.679521 -105.246961 47 31ft 0kts
12-Jan-21 13:53 20.679521 -105.246961 47 31ft 0kts
12-Jan-21 13:54 20.679521 -105.246961 47 31ft 0kts
12-Jan-21 13:55 20.679521 -105.246961 47 31ft 0kts
12-Jan-21 13:56 20.679521 -105.246961 47 31ft 0kts
12-Jan-21 13:57 20.679521 -105.246961 47 31ft 0kts
12-Jan-21 13:57 20.679521 -105.246961 47 31ft 0kts
12-Jan-21 13:59 20.679521 -105.246961 47 31ft 0kts
12-Jan-21 14:00 20.679521 -105.246961 47 31ft 0kts
12-Jan-21 14:01 20.679521 -105.246961 47 31ft 0kts
12-Jan-21 14:01 20.679521 -105.246961 47 31ft 0kts
12-Jan-21 14:02 20.679521 -105.246961 47 31ft 0kts
12-Jan-21 14:03 20.679521 -105.246961 47 31ft 0kts
12-Jan-21 14:04 20.679521 -105.246961 47 31ft 0kts
12-Jan-21 14:05 20.679521 -105.246961 47 31ft 0kts
12-Jan-21 14:06 20.679521 -105.246961 47 31ft 0kts
12-Jan-21 14:07 20.679521 -105.246961 47 31ft 0kts
12-Jan-21 14:08 20.679521 -105.246961 47 31ft 0kts
12-Jan-21 14:09 20.679521 -105.246961 47 31ft 0kts
12-Jan-21 14:10 20.679521 -105.246961 47 31ft 0kts
12-Jan-21 14:11 20.679521 -105.246961 47 31ft 0kts
12-Jan-21 14:12 20.679521 -105.246961 47 31ft 0kts
12-Jan-21 14:13 20.679521 -105.246961 47 31ft 0kts
12-Jan-21 14:14 20.679521 -105.246961 47 31ft 0kts
12-Jan-21 14:15 20.679521 -105.246961 47 31ft 0kts
12-Jan-21 14:16 20.679521 -105.246961 47 31ft 0kts
12-Jan-21 14:17 20.679521 -105.246961 47 31ft 0kts
12-Jan-21 14:18 20.679521 -105.246961 47 31ft 0kts
12-Jan-21 14:19 20.679521 -105.246961 47 31ft 0kts
12-Jan-21 14:20 20.679521 -105.246961 47 31ft 0kts
12-Jan-21 14:21 20.679521 -105.246961 47 31ft 0kts
12-Jan-21 14:22 20.679521 -105.246961 47 31ft 0kts
12-Jan-21 14:23 20.679521 -105.246961 47 31ft 0kts
12-Jan-21 14:24 20.679521 -105.246961 47 31ft 0kts
12-Jan-21 14:25 20.679521 -105.246961 47 31ft 0kts
12-Jan-21 14:26 20.679521 -105.246961 47 31ft 0kts
12-Jan-21 14:27 20.679521 -105.246961 47 31ft 0kts
12-Jan-21 14:28 20.679521 -105.246961 47 31ft 0kts
12-Jan-21 14:29 20.679521 -105.246961 47 31ft 0kts
12-Jan-21 14:30 20.679521 -105.246961 47 31ft 0kts
12-Jan-21 14:31 20.679521 -105.246961 47 31ft 0kts
12-Jan-21 14:32 20.679521 -105.246961 47 31ft 0kts
12-Jan-21 14:33 20.679521 -105.246961 47 31ft 0kts
12-Jan-21 14:34 20.679521 -105.246961 47 31ft 0kts
12-Jan-21 14:35 20.679521 -105.246961 47 31ft 0kts
12-Jan-21 14:36 20.679521 -105.246961 47 31ft 0kts
12-Jan-21 14:37 20.679214 -105.247295 40 31ft 2kts
12-Jan-21 14:38 20.678900 -105.247476 3 31ft 0kts
12-Jan-21 14:39 20.678901 -105.247476 3 31ft 0kts
12-Jan-21 14:40 20.679359 -105.247823 316 31ft 16kts
12-Jan-21 14:41 20.684675 -105.246173 29 31ft 27kts
12-Jan-21 14:42 20.688781 -105.242960 318 31ft 10kts
12-Jan-21 14:43 20.680177 -105.254090 226 32ft 139kts
12-Jan-21 14:44 20.646794 -105.292828 225 1778ft 200kts
12-Jan-21 14:45 20.649711 -105.344175 333 4469ft 219kts
12-Jan-21 14:46 20.713046 -105.358571 347 6707ft 268kts
12-Jan-21 14:47 20.792106 -105.376651 346 9852ft 299kts
12-Jan-21 14:48 20.875205 -105.394256 349 13161ft 320kts
12-Jan-21 14:49 20.973478 -105.400092 353 15320ft 370kts
12-Jan-21 14:50 21.068664 -105.433033 315 18359ft 366kts
12-Jan-21 14:51 21.143794 -105.509696 312 21066ft 379kts
12-Jan-21 14:52 21.222165 -105.588458 312 23427ft 392kts
12-Jan-21 14:53 21.302472 -105.669239 311 25649ft 399kts
12-Jan-21 14:54 21.385448 -105.750766 316 27581ft 410kts
12-Jan-21 14:55 21.480208 -105.821723 319 29210ft 419kts
12-Jan-21 14:56 21.576669 -105.893527 318 30690ft 424kts
12-Jan-21 14:57 21.673463 -105.965678 316 32502ft 415kts
12-Jan-21 14:58 21.766779 -106.035221 314 34354ft 402kts
12-Jan-21 14:59 21.858557 -106.103895 313 35495ft 402kts
12-Jan-21 15:00 21.950690 -106.172819 313 36529ft 402kts
12-Jan-21 15:01 22.042508 -106.241769 312 37468ft 402kts
12-Jan-21 15:02 22.134608 -106.311106 312 38073ft 407kts
12-Jan-21 15:03 22.236073 -106.370318 324 38070ft 425kts
12-Jan-21 15:04 22.346158 -106.417682 324 38064ft 425kts
12-Jan-21 15:05 22.456303 -106.465135 324 38057ft 424kts
12-Jan-21 15:06 22.565546 -106.512113 324 38055ft 423kts
12-Jan-21 15:07 22.675084 -106.559324 324 38053ft 421kts
12-Jan-21 15:08 22.784229 -106.606489 324 38052ft 422kts
12-Jan-21 15:09 22.892961 -106.653570 324 38051ft 420kts
12-Jan-21 15:10 23.001804 -106.700781 324 38054ft 420kts
12-Jan-21 15:11 23.109822 -106.747715 324 38055ft 418kts
12-Jan-21 15:12 23.217981 -106.794791 324 38060ft 417kts
12-Jan-21 15:13 23.325436 -106.841645 324 38063ft 415kts
12-Jan-21 15:14 23.432921 -106.888593 324 38066ft 415kts
12-Jan-21 15:15 23.539997 -106.935437 323 38069ft 415kts
12-Jan-21 15:16 23.647284 -106.982470 323 38072ft 415kts
12-Jan-21 15:17 23.754230 -107.029432 323 38074ft 415kts
12-Jan-21 15:18 23.861484 -107.076612 323 38075ft 414kts
12-Jan-21 15:19 23.968451 -107.123751 323 38075ft 415kts
12-Jan-21 15:20 24.075018 -107.170801 324 38074ft 413kts
12-Jan-21 15:21 24.182118 -107.218137 324 38072ft 419kts
12-Jan-21 15:22 24.288796 -107.265461 323 38061ft 401kts
12-Jan-21 15:23 24.391125 -107.310827 323 38063ft 396kts
12-Jan-21 15:24 24.493967 -107.356513 323 38062ft 398kts
12-Jan-21 15:25 24.596904 -107.402348 323 38059ft 401kts
12-Jan-21 15:26 24.700589 -107.448682 324 38061ft 400kts
12-Jan-21 15:27 24.804942 -107.493217 328 38062ft 411kts
12-Jan-21 15:28 24.913065 -107.532701 327 38058ft 404kts
12-Jan-21 15:30 25.020288 -107.572775 327 38064ft 409kts
12-Jan-21 15:31 25.127378 -107.613020 328 38065ft 407kts
12-Jan-21 15:32 25.234904 -107.653395 328 38073ft 409kts
12-Jan-21 15:33 25.342924 -107.694044 328 38076ft 410kts
12-Jan-21 15:34 25.450624 -107.734633 329 38084ft 410kts
12-Jan-21 15:35 25.559620 -107.775605 329 38090ft 415kts
12-Jan-21 15:36 25.667861 -107.816457 329 38093ft 409kts
12-Jan-21 15:37 25.776114 -107.857531 329 38098ft 409kts
12-Jan-21 15:38 25.884065 -107.898505 329 38103ft 413kts
12-Jan-21 15:39 25.992586 -107.939744 329 38110ft 411kts
12-Jan-21 15:40 26.100896 -107.981094 329 38109ft 411kts
12-Jan-21 15:41 26.209853 -108.022618 330 38115ft 417kts
12-Jan-21 15:42 26.319431 -108.064431 330 38118ft 412kts
12-Jan-21 15:43 26.427604 -108.105852 330 38122ft 413kts
12-Jan-21 15:44 26.537175 -108.148044 330 38123ft 415kts
12-Jan-21 15:45 26.642377 -108.196789 323 38128ft 404kts
12-Jan-21 15:46 26.742387 -108.253657 323 38129ft 404kts
12-Jan-21 15:47 26.842697 -108.309997 324 38131ft 400kts
12-Jan-21 15:47 26.926339 -108.356892 324 38135ft 406kts
12-Jan-21 15:49 27.043341 -108.422446 324 38137ft 399kts
12-Jan-21 15:49 27.126368 -108.469161 324 38139ft 400kts
12-Jan-21 15:51 27.242337 -108.534559 325 38140ft 401kts
12-Jan-21 15:51 27.325534 -108.581572 325 38141ft 400kts
12-Jan-21 15:52 27.425093 -108.637936 325 38142ft 401kts
12-Jan-21 15:53 27.524650 -108.694418 325 38142ft 401kts
12-Jan-21 15:54 27.624298 -108.751066 325 38141ft 400kts
12-Jan-21 15:55 27.723779 -108.807737 325 38141ft 400kts
12-Jan-21 15:56 27.823534 -108.864683 325 38141ft 405kts
12-Jan-21 15:57 27.926348 -108.923499 326 38140ft 421kts
12-Jan-21 15:58 28.030439 -108.983097 326 38153ft 418kts
12-Jan-21 15:59 28.134376 -109.042811 327 38156ft 418kts
12-Jan-21 16:00 28.238002 -109.102566 327 38158ft 418kts
12-Jan-21 16:01 28.341775 -109.162459 327 38160ft 418kts
12-Jan-21 16:02 28.445227 -109.222361 327 38162ft 418kts
12-Jan-21 16:03 28.549021 -109.282638 327 38164ft 418kts
12-Jan-21 16:04 28.652704 -109.342686 327 38167ft 418kts
12-Jan-21 16:05 28.756542 -109.403048 327 38162ft 418kts
12-Jan-21 16:06 28.860060 -109.463428 328 38164ft 418kts
12-Jan-21 16:07 28.963574 -109.523956 328 38167ft 417kts
12-Jan-21 16:08 29.066446 -109.584248 328 38170ft 416kts
12-Jan-21 16:09 29.169896 -109.645029 329 38204ft 418kts
12-Jan-21 16:10 29.275182 -109.707046 331 38216ft 429kts
12-Jan-21 16:11 29.381145 -109.769554 331 38219ft 427kts
12-Jan-21 16:12 29.486701 -109.831843 332 38221ft 427kts
12-Jan-21 16:13 29.592188 -109.894472 332 38214ft 426kts
12-Jan-21 16:14 29.697722 -109.957265 332 38219ft 426kts
12-Jan-21 16:15 29.802862 -110.019977 332 38225ft 426kts
12-Jan-21 16:16 29.908108 -110.082984 332 38221ft 426kts
12-Jan-21 16:17 30.013546 -110.146289 332 38226ft 426kts
12-Jan-21 16:18 30.118621 -110.209102 333 38233ft 425kts
12-Jan-21 16:19 30.223237 -110.272012 333 38240ft 424kts
12-Jan-21 16:20 30.328018 -110.335222 333 38249ft 422kts
12-Jan-21 16:21 30.432211 -110.398241 333 38275ft 421kts
12-Jan-21 16:22 30.535655 -110.460962 333 38290ft 419kts
12-Jan-21 16:23 30.638741 -110.523610 334 38298ft 417kts
12-Jan-21 16:24 30.741349 -110.586127 334 38304ft 415kts
12-Jan-21 16:25 30.843560 -110.648556 334 38309ft 413kts
12-Jan-21 16:26 30.944977 -110.710650 334 38311ft 412kts
12-Jan-21 16:27 31.046553 -110.772982 335 38311ft 411kts
12-Jan-21 16:28 31.147685 -110.835061 335 38309ft 410kts
12-Jan-21 16:29 31.248496 -110.897349 335 38299ft 408kts
12-Jan-21 16:30 31.352704 -110.944312 357 38301ft 402kts
12-Jan-21 16:31 31.464303 -110.943526 2 38301ft 401kts
12-Jan-21 16:32 31.576025 -110.938737 2 38307ft 400kts
12-Jan-21 16:33 31.687368 -110.933674 2 38303ft 400kts
12-Jan-21 16:34 31.798359 -110.928602 2 38306ft 399kts
12-Jan-21 16:35 31.909192 -110.923500 2 38309ft 399kts
12-Jan-21 16:36 32.020722 -110.918346 3 36889ft 401kts
12-Jan-21 16:37 32.131848 -110.925356 351 33929ft 401kts
12-Jan-21 16:38 32.240205 -110.954030 350 31323ft 390kts
12-Jan-21 16:39 32.343934 -110.982138 349 29061ft 376kts
12-Jan-21 16:40 32.444138 -111.009425 349 26808ft 364kts
12-Jan-21 16:41 32.539641 -111.043794 336 25020ft 351kts
12-Jan-21 16:42 32.626046 -111.106078 331 23521ft 368kts
12-Jan-21 16:43 32.711559 -111.170447 331 21989ft 360kts
12-Jan-21 16:44 32.779710 -111.253671 308 20483ft 351kts
12-Jan-21 16:45 32.833343 -111.349793 308 19010ft 346kts
12-Jan-21 16:46 32.886214 -111.443963 307 17436ft 337kts
12-Jan-21 16:47 32.939879 -111.532311 313 15880ft 318kts
12-Jan-21 16:48 32.993821 -111.611717 311 14582ft 301kts
12-Jan-21 16:49 33.045512 -111.689249 311 13325ft 296kts
12-Jan-21 16:50 33.096601 -111.765880 310 12080ft 292kts
12-Jan-21 16:51 33.146520 -111.840982 310 10871ft 287kts
12-Jan-21 16:52 33.195402 -111.914601 310 9673ft 275kts
12-Jan-21 16:53 33.241797 -111.984673 310 8536ft 261kts
12-Jan-21 16:54 33.285881 -112.051098 310 7451ft 247kts
12-Jan-21 16:55 33.328051 -112.114162 311 6178ft 236kts
12-Jan-21 16:56 33.367749 -112.171124 311 6000ft 216kts
12-Jan-21 16:57 33.406141 -112.224186 326 4571ft 211kts
12-Jan-21 16:58 33.447293 -112.195255 86 3081ft 206kts
12-Jan-21 16:59 33.441175 -112.133384 90 2770ft 168kts
12-Jan-21 17:00 33.440803 -112.083380 88 2008ft 143kts
12-Jan-21 17:01 33.440864 -112.036946 90 1307ft 138kts
12-Jan-21 17:02 33.440694 -112.005448 110 1143ft 27kts
12-Jan-21 17:03 33.438990 -112.002191 90 1143ft 15kts
12-Jan-21 17:04 33.438995 -111.995612 90 1143ft 21kts
12-Jan-21 17:05 33.437715 -111.993409 277 1143ft 6kts
12-Jan-21 17:06 33.437752 -111.993742 278 1143ft 0kts
12-Jan-21 17:07 33.437752 -111.993742 278 1143ft 0kts
12-Jan-21 17:08 33.437752 -111.993742 278 1143ft 0kts
12-Jan-21 17:09 33.437752 -111.993742 278 1143ft 0kts
12-Jan-21 17:10 33.437752 -111.993742 278 1143ft 0kts
12-Jan-21 17:11 33.437752 -111.993742 278 1143ft 0kts
12-Jan-21 17:12 33.437752 -111.993742 278 1143ft 0kts
12-Jan-21 17:13 33.437752 -111.993742 278 1143ft 0kts
12-Jan-21 17:14 33.437752 -111.993742 278 1143ft 0kts
12-Jan-21 17:16 33.437752 -111.993742 278 1143ft 0kts
12-Jan-21 17:17 33.437752 -111.993742 278 1143ft 0kts

Navigation Log

Ident Type
Flight plan parsing failed, navigation log unavailable